createdAt,value
2024-02-16T00:00:14.620Z,23.08
2024-02-16T00:02:45.570Z,23.13
2024-02-16T00:05:13.783Z,23.80
2024-02-16T00:07:41.504Z,20.58
2024-02-16T00:10:10.392Z,20.35
2024-02-16T00:12:38.055Z,20.85
2024-02-16T00:15:05.789Z,22.75
2024-02-16T00:17:34.668Z,22.88
2024-02-16T00:20:02.429Z,21.20
2024-02-16T00:22:29.991Z,22.20
2024-02-16T00:24:57.297Z,21.60
2024-02-16T00:27:24.675Z,21.70
2024-02-16T00:29:51.997Z,21.52
2024-02-16T00:32:19.340Z,22.25
2024-02-16T00:34:46.827Z,21.70
2024-02-16T00:37:14.045Z,20.80
2024-02-16T00:39:43.960Z,21.95
2024-02-16T00:42:12.361Z,20.55
2024-02-16T00:44:40.273Z,19.85
2024-02-16T00:47:07.902Z,19.83
2024-02-16T00:49:35.553Z,19.83
2024-02-16T00:52:03.678Z,20.20
2024-02-16T00:54:31.100Z,20.27
2024-02-16T00:57:03.959Z,20.42
2024-02-16T00:59:31.740Z,21.02
2024-02-16T01:01:59.273Z,22.75
2024-02-16T01:04:26.695Z,21.67
2024-02-16T01:06:54.114Z,21.55
2024-02-16T01:09:21.489Z,21.02
2024-02-16T01:11:48.848Z,22.92
2024-02-16T01:14:16.668Z,23.23
2024-02-16T01:16:44.216Z,26.48
2024-02-16T01:21:58.921Z,23.58
2024-02-16T01:24:26.488Z,22.77
2024-02-16T01:26:53.866Z,22.00
2024-02-16T01:29:21.184Z,20.98
2024-02-16T01:31:48.428Z,21.70
2024-02-16T01:34:16.252Z,20.13
2024-02-16T01:36:43.586Z,20.15
2024-02-16T01:39:10.973Z,18.98
2024-02-16T01:41:41.152Z,17.90
2024-02-16T01:44:09.117Z,20.67
2024-02-16T01:46:37.012Z,20.05
2024-02-16T01:49:05.269Z,19.40
2024-02-16T01:51:33.513Z,20.25
2024-02-16T01:54:02.315Z,20.35
2024-02-16T01:57:07.188Z,21.80
2024-02-16T01:59:34.802Z,20.15
2024-02-16T02:02:02.068Z,19.63
2024-02-16T02:04:29.687Z,20.48
2024-02-16T02:06:57.249Z,19.33
2024-02-16T02:09:24.682Z,20.42
2024-02-16T02:11:53.333Z,20.33
2024-02-16T02:14:24.028Z,21.75
2024-02-16T02:16:58.555Z,22.33
2024-02-16T02:19:26.788Z,20.10
2024-02-16T02:21:54.064Z,19.15
2024-02-16T02:24:22.192Z,20.70
2024-02-16T02:26:49.557Z,21.35
2024-02-16T02:29:16.884Z,25.27
2024-02-16T02:31:44.307Z,23.85
2024-02-16T02:34:12.045Z,21.83
2024-02-16T02:36:39.449Z,21.92
2024-02-16T02:39:07.372Z,18.48
2024-02-16T02:41:34.714Z,18.10
2024-02-16T02:44:02.012Z,18.77
2024-02-16T02:46:29.298Z,19.13
2024-02-16T02:48:56.768Z,17.33
2024-02-16T02:51:25.150Z,15.55
2024-02-16T02:56:19.742Z,18.80
2024-02-16T02:58:47.002Z,19.45
2024-02-16T03:01:15.265Z,23.88
2024-02-16T03:03:44.281Z,23.80
2024-02-16T03:06:11.938Z,23.85
2024-02-16T03:08:39.310Z,24.33
2024-02-16T03:11:06.926Z,24.80
2024-02-16T03:13:34.508Z,21.98
2024-02-16T03:16:01.767Z,19.45
2024-02-16T03:18:38.420Z,20.00
2024-02-16T03:21:06.096Z,19.58
2024-02-16T03:23:33.409Z,20.73
2024-02-16T03:26:00.666Z,17.38
2024-02-16T03:28:27.860Z,17.88
2024-02-16T03:30:55.186Z,17.25
2024-02-16T03:33:22.843Z,16.73
2024-02-16T03:35:50.285Z,17.50
2024-02-16T03:38:17.611Z,17.55
2024-02-16T03:40:44.850Z,18.13
2024-02-16T03:43:13.196Z,18.15
2024-02-16T03:45:40.486Z,17.10
2024-02-16T03:50:52.839Z,19.10
2024-02-16T03:53:20.116Z,18.60
2024-02-16T03:55:47.366Z,18.85
2024-02-16T03:58:14.689Z,18.42
2024-02-16T04:00:42.045Z,17.73
2024-02-16T04:03:10.629Z,17.92
2024-02-16T04:05:40.270Z,18.52
2024-02-16T04:08:07.783Z,18.80
2024-02-16T04:10:35.554Z,17.90
2024-02-16T04:13:03.772Z,18.13
2024-02-16T04:15:31.371Z,18.45
2024-02-16T04:17:58.735Z,17.45
2024-02-16T04:20:26.120Z,18.48
2024-02-16T04:22:53.397Z,17.65
2024-02-16T04:25:20.958Z,16.98
2024-02-16T04:27:48.285Z,19.20
2024-02-16T04:30:15.589Z,17.48
2024-02-16T04:32:42.844Z,19.60
2024-02-16T04:35:13.429Z,17.92
2024-02-16T04:37:40.876Z,18.52
2024-02-16T04:40:09.359Z,17.58
2024-02-16T04:42:36.568Z,17.98
2024-02-16T04:45:06.619Z,19.05
2024-02-16T04:47:34.294Z,18.52
2024-02-16T04:50:01.754Z,19.55
2024-02-16T04:52:30.975Z,19.23
2024-02-16T04:54:58.854Z,19.00
2024-02-16T04:57:26.162Z,18.33
2024-02-16T04:59:53.532Z,18.73
2024-02-16T05:02:20.790Z,19.00
2024-02-16T05:04:48.075Z,18.27
2024-02-16T05:07:16.946Z,17.92
2024-02-16T05:09:44.501Z,19.08
2024-02-16T05:12:13.038Z,18.88
2024-02-16T05:14:41.655Z,19.10
2024-02-16T05:17:08.889Z,18.55
2024-02-16T05:19:36.880Z,18.60
2024-02-16T05:22:04.895Z,19.63
2024-02-16T05:27:16.691Z,18.63
2024-02-16T05:29:45.517Z,18.48
2024-02-16T05:32:14.106Z,18.35
2024-02-16T05:34:41.560Z,20.30
2024-02-16T05:37:09.729Z,17.27
2024-02-16T05:39:54.875Z,20.42
2024-02-16T05:42:25.136Z,19.63
2024-02-16T05:44:52.651Z,19.98
2024-02-16T05:47:21.021Z,20.10
2024-02-16T05:49:48.575Z,19.10
2024-02-16T05:52:19.345Z,18.95
2024-02-16T05:54:48.118Z,22.92
2024-02-16T05:57:15.843Z,24.85
2024-02-16T05:59:43.396Z,22.15
2024-02-16T06:02:12.264Z,21.35
2024-02-16T06:04:41.117Z,22.17
2024-02-16T06:07:09.428Z,23.20
2024-02-16T06:09:38.730Z,30.92
2024-02-16T06:12:08.652Z,22.42
2024-02-16T06:14:37.809Z,22.52
2024-02-16T06:17:05.243Z,22.02
2024-02-16T06:19:32.706Z,21.73
2024-02-16T06:22:00.312Z,23.00
2024-02-16T06:24:27.688Z,22.33
2024-02-16T06:29:41.537Z,22.20
2024-02-16T06:32:08.897Z,21.70
2024-02-16T06:34:37.241Z,23.25
2024-02-16T06:37:04.875Z,23.75
2024-02-16T06:39:32.603Z,24.83
2024-02-16T06:42:00.724Z,25.17
2024-02-16T06:44:27.989Z,26.35
2024-02-16T06:46:55.413Z,23.55
2024-02-16T06:49:22.619Z,37.20
2024-02-16T06:51:50.021Z,45.55
2024-02-16T06:54:17.278Z,27.25
2024-02-16T06:56:45.382Z,27.08
2024-02-16T06:59:12.842Z,27.27
2024-02-16T07:01:40.162Z,29.77
2024-02-16T07:04:07.433Z,29.08
2024-02-16T07:06:34.814Z,28.15
2024-02-16T07:09:02.260Z,29.25
2024-02-16T07:11:29.924Z,27.17
2024-02-16T07:13:57.180Z,25.60
2024-02-16T07:16:24.377Z,26.60
2024-02-16T07:18:52.044Z,26.67
2024-02-16T07:21:21.985Z,26.77
2024-02-16T07:23:49.523Z,26.20
2024-02-16T07:26:18.307Z,26.38
2024-02-16T07:28:46.027Z,24.98
2024-02-16T07:31:15.552Z,24.67
2024-02-16T07:33:43.754Z,22.75
2024-02-16T07:36:11.217Z,22.17
2024-02-16T07:38:38.477Z,23.08
2024-02-16T07:41:09.486Z,21.27
2024-02-16T07:43:37.002Z,20.52
2024-02-16T07:46:05.057Z,19.50
2024-02-16T07:48:32.674Z,19.73
2024-02-16T07:51:04.028Z,20.17
2024-02-16T07:53:32.820Z,19.98
2024-02-16T07:56:00.207Z,20.27
2024-02-16T07:58:27.476Z,19.50
2024-02-16T08:00:56.741Z,19.95
2024-02-16T08:03:42.943Z,20.10
2024-02-16T08:06:10.597Z,19.98
2024-02-16T08:08:37.980Z,20.73
2024-02-16T08:11:05.504Z,18.92
2024-02-16T08:13:33.152Z,19.60
2024-02-16T08:16:00.498Z,19.08
2024-02-16T08:18:27.912Z,20.15
2024-02-16T08:20:55.498Z,20.27
2024-02-16T08:23:22.712Z,21.33
2024-02-16T08:25:50.032Z,19.73
2024-02-16T08:28:17.299Z,19.52
2024-02-16T08:30:45.714Z,19.58
2024-02-16T08:33:16.105Z,18.48
2024-02-16T08:35:43.964Z,18.85
2024-02-16T08:38:12.271Z,18.48
2024-02-16T08:40:40.636Z,20.30
2024-02-16T08:43:08.620Z,19.60
2024-02-16T08:45:36.399Z,19.05
2024-02-16T08:48:05.660Z,18.77
2024-02-16T08:50:33.127Z,19.35
2024-02-16T08:53:00.363Z,18.63
2024-02-16T08:55:31.224Z,20.00
2024-02-16T08:57:59.123Z,20.33
2024-02-16T09:00:28.255Z,20.75
2024-02-16T09:02:56.382Z,20.05
2024-02-16T09:05:25.867Z,19.17
2024-02-16T09:07:56.468Z,20.77
2024-02-16T09:10:24.484Z,20.23
2024-02-16T09:12:53.210Z,19.55
2024-02-16T09:15:20.461Z,19.42
2024-02-16T09:17:47.713Z,18.33
2024-02-16T09:20:15.358Z,17.73
2024-02-16T09:22:47.122Z,18.77
2024-02-16T09:25:15.635Z,18.65
2024-02-16T09:27:48.279Z,18.17
2024-02-16T09:30:15.828Z,18.17
2024-02-16T09:32:43.562Z,19.30
2024-02-16T09:35:11.258Z,17.80
2024-02-16T09:37:40.592Z,16.42
2024-02-16T09:40:09.630Z,18.70
2024-02-16T09:45:25.856Z,18.38
2024-02-16T09:53:27.752Z,16.48
2024-02-16T09:55:55.577Z,16.70
2024-02-16T09:58:22.980Z,17.38
2024-02-16T10:00:54.684Z,16.40
2024-02-16T10:03:28.984Z,16.98
2024-02-16T10:06:13.090Z,15.30
2024-02-16T10:08:53.446Z,15.45
2024-02-16T10:14:07.144Z,14.73
2024-02-16T10:16:34.642Z,15.93
2024-02-16T10:19:09.557Z,14.95
2024-02-16T10:21:37.068Z,14.82
2024-02-16T10:24:09.738Z,17.35
2024-02-16T10:26:40.765Z,19.73
2024-02-16T10:29:11.089Z,14.63
2024-02-16T10:31:39.136Z,13.68
2024-02-16T10:34:08.623Z,14.05
2024-02-16T10:36:37.667Z,12.40
2024-02-16T10:39:07.230Z,12.75
2024-02-16T10:41:35.888Z,12.80
2024-02-16T10:44:05.464Z,12.02
2024-02-16T10:46:33.592Z,11.55
2024-02-16T10:51:49.362Z,10.70
2024-02-16T10:54:20.752Z,11.20
2024-02-16T10:56:49.120Z,11.05
2024-02-16T10:59:18.236Z,10.75
2024-02-16T11:01:46.527Z,10.63
2024-02-16T11:07:11.678Z,9.40
2024-02-16T11:09:41.542Z,9.32
2024-02-16T11:12:09.861Z,9.15
2024-02-16T11:14:42.880Z,9.70
2024-02-16T11:17:21.260Z,8.82
2024-02-16T11:22:39.829Z,10.50
2024-02-16T11:25:08.883Z,9.65
2024-02-16T11:27:36.549Z,10.25
2024-02-16T11:30:06.433Z,10.10
2024-02-16T11:32:35.995Z,10.35
2024-02-16T11:35:10.407Z,11.15
2024-02-16T11:37:38.123Z,9.38
2024-02-16T11:40:09.460Z,9.52
2024-02-16T11:42:36.821Z,9.60
2024-02-16T11:45:04.639Z,9.00
2024-02-16T11:47:32.097Z,8.38
2024-02-16T11:50:04.251Z,8.18
2024-02-16T11:52:51.969Z,8.73
2024-02-16T11:55:19.223Z,8.13
2024-02-16T11:57:49.618Z,10.85
2024-02-16T12:02:44.677Z,9.13
2024-02-16T12:08:01.273Z,8.48
2024-02-16T12:10:30.356Z,8.30
2024-02-16T12:13:00.442Z,8.52
2024-02-16T12:15:30.071Z,8.18
2024-02-16T12:18:04.704Z,7.35
2024-02-16T12:20:32.914Z,8.27
2024-02-16T12:23:00.771Z,8.27
2024-02-16T12:25:28.036Z,8.05
2024-02-16T12:27:55.372Z,7.50
2024-02-16T12:30:22.617Z,7.50
2024-02-16T12:32:49.928Z,7.50
2024-02-16T12:40:53.049Z,7.72
2024-02-16T12:43:21.403Z,6.78
2024-02-16T12:45:48.933Z,6.82
2024-02-16T12:48:16.983Z,7.07
2024-02-16T12:50:44.329Z,6.88
2024-02-16T12:53:11.821Z,7.60
2024-02-16T12:55:39.195Z,6.97
2024-02-16T12:58:06.608Z,7.10
2024-02-16T13:00:33.971Z,6.93
2024-02-16T13:03:01.482Z,7.40
2024-02-16T13:05:29.057Z,7.38
2024-02-16T13:07:56.571Z,8.60
2024-02-16T13:10:23.974Z,8.82
2024-02-16T13:12:51.234Z,8.02
2024-02-16T13:15:27.088Z,7.85
2024-02-16T13:17:56.891Z,7.22
2024-02-16T13:20:24.583Z,7.53
2024-02-16T13:22:51.908Z,7.63
2024-02-16T13:25:21.555Z,7.10
2024-02-16T13:27:48.925Z,6.88
2024-02-16T13:30:16.391Z,7.22
2024-02-16T13:35:30.148Z,6.70
2024-02-16T13:37:57.346Z,6.80
2024-02-16T13:40:24.946Z,7.25
2024-02-16T13:42:52.282Z,6.80
2024-02-16T13:45:19.652Z,7.32
2024-02-16T13:47:47.134Z,7.70
2024-02-16T13:50:14.731Z,6.65
2024-02-16T13:52:42.204Z,7.05
2024-02-16T13:55:09.662Z,6.43
2024-02-16T13:57:37.298Z,7.13
2024-02-16T14:00:05.013Z,6.95
2024-02-16T14:02:32.377Z,6.70
2024-02-16T14:05:02.745Z,6.53
2024-02-16T14:07:34.022Z,8.38
2024-02-16T14:10:03.065Z,8.98
2024-02-16T14:15:17.236Z,7.13
2024-02-16T14:17:44.766Z,6.28
2024-02-16T14:20:12.867Z,6.93
2024-02-16T14:22:40.298Z,6.30
2024-02-16T14:25:07.769Z,6.85
2024-02-16T14:27:35.095Z,6.68
2024-02-16T14:30:03.432Z,7.00
2024-02-16T14:32:30.750Z,7.03
2024-02-16T14:34:58.159Z,6.38
2024-02-16T14:37:25.732Z,5.95
2024-02-16T14:39:58.001Z,7.32
2024-02-16T14:42:25.820Z,7.22
2024-02-16T14:44:55.094Z,6.72
2024-02-16T14:47:23.607Z,6.95
2024-02-16T14:49:50.971Z,6.53
2024-02-16T14:52:18.316Z,6.65
2024-02-16T14:54:45.632Z,6.30
2024-02-16T14:57:13.061Z,7.07
2024-02-16T14:59:40.383Z,6.40
2024-02-16T15:02:08.462Z,6.10
2024-02-16T15:04:35.830Z,5.97
2024-02-16T15:07:03.091Z,6.20
2024-02-16T15:09:30.610Z,6.13
2024-02-16T15:11:58.300Z,5.55
2024-02-16T15:14:25.660Z,5.68
2024-02-16T15:16:55.113Z,5.55
2024-02-16T15:19:22.406Z,6.13
2024-02-16T15:21:50.034Z,5.95
2024-02-16T15:24:17.378Z,6.18
2024-02-16T15:26:46.021Z,6.82
2024-02-16T15:29:13.306Z,7.10
2024-02-16T15:31:40.579Z,6.10
2024-02-16T15:34:08.112Z,6.70
2024-02-16T15:36:35.887Z,6.65
2024-02-16T15:39:03.264Z,7.10
2024-02-16T15:41:30.874Z,9.23
2024-02-16T15:43:58.234Z,9.57
2024-02-16T15:46:25.541Z,7.50
2024-02-16T15:48:53.223Z,7.40
2024-02-16T15:54:05.769Z,7.18
2024-02-16T15:56:33.076Z,7.22
2024-02-16T15:59:03.117Z,7.95
2024-02-16T16:01:31.877Z,8.07
2024-02-16T16:03:59.530Z,7.88
2024-02-16T16:06:27.386Z,10.02
2024-02-16T16:11:48.085Z,12.73
2024-02-16T16:17:00.419Z,14.00
2024-02-16T16:19:28.711Z,13.48
2024-02-16T16:21:57.387Z,13.50
2024-02-16T16:24:24.698Z,14.40
2024-02-16T16:26:53.934Z,13.30
2024-02-16T16:29:21.316Z,16.27
2024-02-16T16:31:48.644Z,16.42
2024-02-16T16:34:16.027Z,14.80
2024-02-16T16:36:43.456Z,13.93
2024-02-16T16:39:10.891Z,14.38
2024-02-16T16:41:39.392Z,15.70
2024-02-16T16:44:06.574Z,16.60
2024-02-16T16:46:34.005Z,15.88
2024-02-16T16:49:01.308Z,16.77
2024-02-16T16:51:28.583Z,18.40
2024-02-16T16:53:55.942Z,22.27
2024-02-16T16:56:25.986Z,21.75
2024-02-16T16:58:53.283Z,18.63
2024-02-16T17:01:21.178Z,18.27
2024-02-16T17:03:51.663Z,16.08
2024-02-16T17:06:24.723Z,15.57
2024-02-16T17:08:53.036Z,14.90
2024-02-16T17:11:24.265Z,14.55
2024-02-16T17:13:51.752Z,16.17
2024-02-16T17:16:19.043Z,14.57
2024-02-16T17:18:46.361Z,17.15
2024-02-16T17:23:58.702Z,33.80
2024-02-16T17:26:26.011Z,23.25
2024-02-16T17:28:53.317Z,21.20
2024-02-16T17:31:20.740Z,19.83
2024-02-16T17:33:48.288Z,21.30
2024-02-16T17:36:15.759Z,20.38
2024-02-16T17:41:33.224Z,24.52
2024-02-16T17:44:05.004Z,26.10
2024-02-16T17:46:32.277Z,26.13
2024-02-16T17:48:59.700Z,26.90
2024-02-16T17:51:29.336Z,27.23
2024-02-16T17:53:56.736Z,26.27
2024-02-16T17:56:24.258Z,25.08
2024-02-16T17:58:51.546Z,25.70
2024-02-16T18:01:19.395Z,26.00
2024-02-16T18:03:47.585Z,24.33
2024-02-16T18:06:15.113Z,20.08
2024-02-16T18:08:42.440Z,19.92
2024-02-16T18:11:11.980Z,19.25
2024-02-16T18:13:39.438Z,20.65
2024-02-16T18:16:07.090Z,20.00
2024-02-16T18:18:35.214Z,19.98
2024-02-16T18:21:02.824Z,17.15
2024-02-16T18:23:31.577Z,15.07
2024-02-16T18:25:59.543Z,15.68
2024-02-16T18:31:12.158Z,16.60
2024-02-16T18:33:39.668Z,18.13
2024-02-16T18:36:08.422Z,18.08
2024-02-16T18:38:37.255Z,18.50
2024-02-16T18:41:04.639Z,21.33
2024-02-16T18:43:31.909Z,18.95
2024-02-16T18:45:59.939Z,18.65
2024-02-16T18:48:28.025Z,17.63
2024-02-16T18:50:55.437Z,18.90
2024-02-16T18:56:07.640Z,19.15
2024-02-16T18:58:53.824Z,18.10
2024-02-16T19:01:22.474Z,18.27
2024-02-16T19:03:50.187Z,17.90
2024-02-16T19:06:18.245Z,17.38
2024-02-16T19:08:45.516Z,16.80
2024-02-16T19:11:12.813Z,17.38
2024-02-16T19:13:40.137Z,15.23
2024-02-16T19:16:07.930Z,15.25
2024-02-16T19:18:37.615Z,16.65
2024-02-16T19:21:08.425Z,28.27
2024-02-16T19:23:36.004Z,17.55
2024-02-16T19:26:03.252Z,18.27
2024-02-16T19:28:30.503Z,17.85
2024-02-16T19:31:00.583Z,18.42
2024-02-16T19:33:28.212Z,16.83
2024-02-16T19:35:56.086Z,18.70
2024-02-16T19:38:23.456Z,18.45
2024-02-16T19:40:50.737Z,18.65
2024-02-16T19:43:20.386Z,16.50
2024-02-16T19:45:47.709Z,16.63
2024-02-16T19:48:15.058Z,16.02
2024-02-16T19:50:42.581Z,14.35
2024-02-16T19:58:39.784Z,16.20
2024-02-16T20:01:07.219Z,15.43
2024-02-16T20:03:35.524Z,15.90
2024-02-16T20:06:05.582Z,20.88
2024-02-16T20:08:35.258Z,27.55
2024-02-16T20:11:02.653Z,71.88
2024-02-16T20:13:32.584Z,35.00
2024-02-16T20:16:00.044Z,35.28
2024-02-16T20:18:30.420Z,37.33
2024-02-16T20:23:47.577Z,31.55
2024-02-16T20:26:22.217Z,29.20
2024-02-16T20:28:49.543Z,30.08
2024-02-16T20:31:16.808Z,29.58
2024-02-16T20:36:28.928Z,27.83
2024-02-16T20:38:59.057Z,27.63
2024-02-16T20:41:26.472Z,36.08
2024-02-16T20:43:53.851Z,42.53
2024-02-16T20:46:21.752Z,42.05
2024-02-16T20:48:49.082Z,32.00
2024-02-16T20:51:16.629Z,31.33
2024-02-16T20:53:44.450Z,29.27
2024-02-16T20:56:12.091Z,29.00
2024-02-16T20:58:39.389Z,28.10
2024-02-16T21:01:06.857Z,28.98
2024-02-16T21:03:34.392Z,27.73
2024-02-16T21:06:02.884Z,29.25
2024-02-16T21:08:32.660Z,27.95
2024-02-16T21:10:59.960Z,27.90
2024-02-16T21:13:27.278Z,27.35
2024-02-16T21:15:55.185Z,28.95
2024-02-16T21:18:22.568Z,29.10
2024-02-16T21:20:49.978Z,26.33
2024-02-16T21:23:17.245Z,27.75
2024-02-16T21:25:44.462Z,29.80
2024-02-16T21:28:12.962Z,30.55
2024-02-16T21:30:42.089Z,30.27
2024-02-16T21:33:09.613Z,32.05
2024-02-16T21:38:22.566Z,40.03
2024-02-16T21:40:50.184Z,41.70
2024-02-16T21:43:17.426Z,39.67
2024-02-16T21:45:45.463Z,36.53
2024-02-16T21:48:20.051Z,33.50
2024-02-16T21:50:53.249Z,34.85
2024-02-16T21:53:20.657Z,142.77
2024-02-16T21:55:47.995Z,85.50
2024-02-16T21:58:15.305Z,46.90
2024-02-16T22:00:42.699Z,36.88
2024-02-16T22:03:10.165Z,36.83
2024-02-16T22:05:37.594Z,32.83
2024-02-16T22:08:05.191Z,31.77
2024-02-16T22:10:38.181Z,29.30
2024-02-16T22:13:05.694Z,25.63
2024-02-16T22:15:33.616Z,27.33
2024-02-16T22:18:01.033Z,25.42
2024-02-16T22:20:29.142Z,26.45
2024-02-16T22:22:56.444Z,27.25
2024-02-16T22:25:23.749Z,27.60
2024-02-16T22:27:50.981Z,27.20
2024-02-16T22:30:18.406Z,27.23
2024-02-16T22:32:45.911Z,26.67
2024-02-16T22:35:13.171Z,27.52
2024-02-16T22:37:40.361Z,25.15
2024-02-16T22:40:08.384Z,25.30
2024-02-16T22:42:35.761Z,25.23
2024-02-16T22:45:03.221Z,24.25
2024-02-16T22:47:30.636Z,22.83
2024-02-16T22:49:58.001Z,24.55
2024-02-16T22:52:25.326Z,23.83
2024-02-16T22:54:53.139Z,30.27
2024-02-16T22:57:23.379Z,21.42
2024-02-16T22:59:50.663Z,20.77
2024-02-16T23:05:02.244Z,22.88
2024-02-16T23:07:29.601Z,15.80
2024-02-16T23:09:57.040Z,16.48
2024-02-16T23:12:25.334Z,16.25
2024-02-16T23:14:58.706Z,16.10
2024-02-16T23:17:26.006Z,19.73
2024-02-16T23:19:53.272Z,19.92
2024-02-16T23:22:20.507Z,20.02
2024-02-16T23:24:47.886Z,20.48
2024-02-16T23:27:15.300Z,20.45
2024-02-16T23:29:42.882Z,20.33
2024-02-16T23:32:10.268Z,18.55
2024-02-16T23:34:37.646Z,17.17
2024-02-16T23:37:05.057Z,15.60
2024-02-16T23:39:32.578Z,17.13
2024-02-16T23:42:02.609Z,18.35
2024-02-16T23:44:29.957Z,20.15
2024-02-16T23:46:57.377Z,21.38
2024-02-16T23:49:24.825Z,22.88
2024-02-16T23:51:52.132Z,21.73
2024-02-16T23:54:19.686Z,22.90
2024-02-16T23:56:47.221Z,22.45
2024-02-16T23:59:14.497Z,21.52
